Time;durP1;ratioP1;P1;durP2;ratioP2;P2;SDS_P1;SDS_P2;PMS_P1;PMS_P2;Temp;Humidity;BMP_temperature;BMP_pressure;BME280_temperature;BME280_humidity;BME280_pressure;Samples;Min_cycle;Max_cycle;Signal;HPM_P1;HPM_P2
2021/12/17 00:01:05;;;;;;;0.30;0.10;;;4.20;99.90;;;;;;5070846;28;20475;-91
2021/12/17 00:03:41;;;;;;;1.13;1.03;;;4.20;99.90;;;;;;5061273;28;20942;-91
2021/12/17 00:06:17;;;;;;;0.30;0.10;;;4.20;99.90;;;;;;5068655;28;20938;-92
2021/12/17 00:08:47;;;;;;;0.30;0.10;;;4.30;99.90;;;;;;5063931;28;20954;-90
2021/12/17 00:11:14;;;;;;;0.30;0.20;;;4.20;99.90;;;;;;5072142;28;20493;-91
2021/12/17 00:13:45;;;;;;;0.30;0.10;;;4.20;99.90;;;;;;5073481;28;20440;-91
2021/12/17 00:16:17;;;;;;;0.30;0.20;;;4.20;99.90;;;;;;5072409;28;21041;-90
2021/12/17 00:18:58;;;;;;;0.30;0.30;;;4.20;99.90;;;;;;5068841;28;20934;-91
2021/12/17 00:48:54;;;;;;;0.30;0.10;;;4.10;99.90;;;;;;5074342;28;20483;-90
2021/12/17 00:54:28;;;;;;;0.30;0.10;;;4.10;99.90;;;;;;5059227;28;20770;-90
2021/12/17 00:56:58;;;;;;;0.30;0.10;;;4.10;99.90;;;;;;5069176;28;20482;-93
2021/12/17 00:59:25;;;;;;;0.70;0.30;;;4.10;99.90;;;;;;5071958;28;20822;-92
2021/12/17 01:01:56;;;;;;;0.30;0.10;;;4.00;99.90;;;;;;5067598;28;20544;-90
2021/12/17 01:04:24;;;;;;;0.30;0.10;;;4.00;99.90;;;;;;5068325;28;20564;-91
2021/12/17 01:06:51;;;;;;;0.30;0.10;;;4.00;99.90;;;;;;5064123;28;20483;-90
2021/12/17 01:09:20;;;;;;;0.30;0.10;;;4.00;99.90;;;;;;5062746;28;20678;-92
2021/12/17 01:11:47;;;;;;;0.30;0.20;;;4.00;99.90;;;;;;5054776;28;20506;-90
2021/12/17 01:14:15;;;;;;;0.30;0.30;;;4.10;99.90;;;;;;5052462;28;20786;-90
2021/12/17 01:16:42;;;;;;;0.30;0.13;;;4.10;99.90;;;;;;5066263;28;20461;-90
2021/12/17 01:19:18;;;;;;;0.30;0.10;;;4.10;99.90;;;;;;5072206;28;20444;-91
2021/12/17 01:22:00;;;;;;;0.30;0.10;;;4.10;99.90;;;;;;5071253;28;20532;-92
2021/12/17 01:24:44;;;;;;;0.50;0.50;;;4.10;99.90;;;;;;5069518;28;20468;-90
2021/12/17 01:35:28;;;;;;;0.30;0.10;;;4.20;99.90;;;;;;5062626;28;20428;-90
2021/12/17 01:43:37;;;;;;;0.30;0.20;;;4.20;99.90;;;;;;5090207;28;20446;-90
2021/12/17 01:46:05;;;;;;;0.77;0.40;;;4.20;99.90;;;;;;5070087;28;20456;-92
2021/12/17 01:48:49;;;;;;;0.30;0.10;;;4.20;99.90;;;;;;5065627;28;20463;-89
2021/12/17 01:56:56;;;;;;;0.40;0.30;;;4.30;99.90;;;;;;5071173;28;20960;-90
2021/12/17 01:59:28;;;;;;;0.30;0.30;;;4.30;99.90;;;;;;5069827;28;20455;-92
2021/12/17 02:02:02;;;;;;;2.30;1.40;;;4.40;99.90;;;;;;5068105;28;20834;-90
2021/12/17 02:04:30;;;;;;;0.30;0.10;;;4.30;99.90;;;;;;5068806;28;20451;-91
2021/12/17 02:06:59;;;;;;;0.40;0.40;;;4.30;99.90;;;;;;5070553;28;20490;-90
2021/12/17 02:12:42;;;;;;;0.30;0.10;;;4.40;99.90;;;;;;5050704;28;20799;-90
2021/12/17 02:29:37;;;;;;;0.30;0.10;;;4.30;99.90;;;;;;5056969;28;20469;-91
2021/12/17 02:32:06;;;;;;;0.30;0.10;;;4.30;99.90;;;;;;5064547;28;20448;-89
2021/12/17 02:34:52;;;;;;;0.30;0.10;;;4.20;99.90;;;;;;5062565;28;20440;-91
2021/12/17 02:37:25;;;;;;;1.73;1.63;;;4.20;99.90;;;;;;5061130;28;20499;-89
2021/12/17 02:40:09;;;;;;;0.30;0.10;;;4.20;99.90;;;;;;5092243;28;20475;-90
2021/12/17 02:45:31;;;;;;;0.30;0.20;;;4.20;99.90;;;;;;5075777;28;20464;-91
2021/12/17 02:45:36;;;;;;;0.30;0.10;;;4.20;99.90;;;;;;5069934;28;20424;-89
2021/12/17 02:48:06;;;;;;;0.30;0.10;;;4.20;99.90;;;;;;5067973;28;20509;-90
2021/12/17 02:50:35;;;;;;;0.30;0.20;;;4.20;99.90;;;;;;5066262;28;20452;-90
2021/12/17 02:53:07;;;;;;;0.30;0.10;;;4.20;99.90;;;;;;5070404;28;20451;-90
2021/12/17 02:55:37;;;;;;;0.40;0.20;;;4.20;99.90;;;;;;5066492;28;20460;-90
2021/12/17 02:58:05;;;;;;;0.30;0.10;;;4.20;99.90;;;;;;5069216;28;20926;-90
2021/12/17 03:00:32;;;;;;;3.70;1.60;;;4.20;99.90;;;;;;5069763;28;20525;-89
2021/12/17 03:03:00;;;;;;;0.30;0.10;;;4.20;99.90;;;;;;5057542;28;20465;-89
2021/12/17 03:05:28;;;;;;;0.30;0.20;;;4.20;99.90;;;;;;5064108;28;20491;-92
2021/12/17 03:07:56;;;;;;;0.80;0.30;;;4.20;99.90;;;;;;5064333;28;20458;-90
2021/12/17 03:10:26;;;;;;;0.30;0.17;;;4.20;99.90;;;;;;5066405;28;20926;-90
2021/12/17 03:12:57;;;;;;;0.30;0.10;;;4.20;99.90;;;;;;5067273;28;20476;-91
2021/12/17 03:15:33;;;;;;;0.30;0.10;;;4.20;99.90;;;;;;5060838;28;20498;-89
2021/12/17 03:23:39;;;;;;;0.30;0.10;;;4.20;99.90;;;;;;5068221;28;20529;-90
2021/12/17 03:26:09;;;;;;;0.30;0.20;;;4.30;99.90;;;;;;5069263;28;20462;-90
2021/12/17 03:28:38;;;;;;;0.60;0.30;;;4.20;99.90;;;;;;5067443;28;20497;-89
2021/12/17 03:31:07;;;;;;;0.43;0.43;;;4.20;99.90;;;;;;5066413;28;20901;-89
2021/12/17 03:33:34;;;;;;;0.30;0.10;;;4.30;99.90;;;;;;5068106;28;20854;-89
2021/12/17 03:36:01;;;;;;;0.30;0.10;;;4.30;99.90;;;;;;5067093;28;20444;-89
2021/12/17 03:38:29;;;;;;;0.30;0.10;;;4.30;99.90;;;;;;5070402;28;20540;-89
2021/12/17 03:41:10;;;;;;;0.30;0.10;;;4.30;99.90;;;;;;5071320;28;20816;-89
2021/12/17 03:43:38;;;;;;;0.30;0.10;;;4.30;99.90;;;;;;5068987;28;20995;-90
2021/12/17 03:46:05;;;;;;;0.30;0.10;;;4.30;99.90;;;;;;5058542;28;20435;-90
2021/12/17 03:48:36;;;;;;;0.30;0.10;;;4.30;99.90;;;;;;5066332;28;20934;-89
2021/12/17 03:51:03;;;;;;;0.30;0.20;;;4.30;99.90;;;;;;5065247;28;20477;-88
2021/12/17 03:53:30;;;;;;;0.30;0.23;;;4.30;99.90;;;;;;5057643;28;20797;-89
2021/12/17 03:55:57;;;;;;;0.30;0.10;;;4.30;99.90;;;;;;5063494;28;20539;-89
2021/12/17 03:58:24;;;;;;;0.30;0.10;;;4.30;99.90;;;;;;5061911;28;20441;-90
2021/12/17 04:00:53;;;;;;;0.30;0.20;;;4.20;99.90;;;;;;5065759;28;20479;-90
2021/12/17 04:03:20;;;;;;;0.30;0.10;;;4.30;99.90;;;;;;5069019;28;20991;-91
2021/12/17 04:05:47;;;;;;;2.03;1.93;;;4.30;99.90;;;;;;5053373;28;20797;-89
2021/12/17 04:08:14;;;;;;;0.30;0.20;;;4.20;99.90;;;;;;5065835;28;20506;-90
2021/12/17 04:10:45;;;;;;;0.30;0.10;;;4.20;99.90;;;;;;5068212;28;20456;-89
2021/12/17 04:13:26;;;;;;;0.30;0.10;;;4.20;99.90;;;;;;5066253;28;20451;-89
2021/12/17 04:15:57;;;;;;;0.30;0.10;;;4.20;99.90;;;;;;5067015;28;20914;-91
2021/12/17 04:18:25;;;;;;;0.60;0.20;;;4.30;99.90;;;;;;5065415;28;20452;-89
2021/12/17 04:20:52;;;;;;;0.40;0.20;;;4.20;99.90;;;;;;5069575;28;20529;-90
2021/12/17 04:23:20;;;;;;;1.23;1.13;;;4.20;99.90;;;;;;5067917;28;20454;-89
2021/12/17 04:25:48;;;;;;;0.30;0.10;;;4.20;99.90;;;;;;5064937;28;20578;-91
2021/12/17 04:28:16;;;;;;;0.30;0.10;;;4.10;99.90;;;;;;5060659;28;20474;-89
2021/12/17 04:30:44;;;;;;;0.30;0.10;;;4.10;99.90;;;;;;5057225;28;20549;-89
2021/12/17 04:33:13;;;;;;;0.97;0.67;;;4.10;99.90;;;;;;5070237;28;20500;-90
2021/12/17 04:35:40;;;;;;;0.60;0.60;;;4.10;99.90;;;;;;5084132;28;20428;-89
2021/12/17 04:38:09;;;;;;;0.30;0.10;;;4.10;99.90;;;;;;5069245;28;20479;-90
2021/12/17 04:40:37;;;;;;;0.30;0.10;;;4.10;99.90;;;;;;5058554;28;20486;-90
2021/12/17 04:43:15;;;;;;;0.30;0.10;;;4.10;99.90;;;;;;5066162;28;20452;-89
2021/12/17 04:45:48;;;;;;;0.30;0.10;;;4.20;99.90;;;;;;5068840;28;20441;-89
2021/12/17 04:59:14;;;;;;;0.40;0.40;;;4.10;99.90;;;;;;5072645;28;20459;-91
2021/12/17 05:01:41;;;;;;;0.30;0.10;;;4.10;99.90;;;;;;5073428;28;20836;-89
2021/12/17 05:04:09;;;;;;;0.30;0.20;;;4.10;99.90;;;;;;5067453;28;20461;-89
2021/12/17 05:06:36;;;;;;;0.30;0.10;;;4.10;99.90;;;;;;5059778;28;20451;-88
2021/12/17 05:09:09;;;;;;;4.10;0.93;;;4.10;99.90;;;;;;5062880;28;20793;-89
2021/12/17 05:18:14;;;;;;;0.30;0.20;;;4.00;99.90;;;;;;5069982;28;20542;-90
2021/12/17 05:20:23;;;;;;;0.37;0.23;;;4.00;99.90;;;;;;5065830;28;20506;-91
2021/12/17 05:22:56;;;;;;;0.30;0.10;;;4.10;99.90;;;;;;5067607;28;20487;-89
2021/12/17 05:25:26;;;;;;;0.30;0.10;;;4.00;99.90;;;;;;5060102;28;20919;-88
2021/12/17 05:27:54;;;;;;;0.30;0.20;;;4.10;99.90;;;;;;5060645;28;20457;-90
2021/12/17 05:30:21;;;;;;;0.30;0.10;;;4.10;99.90;;;;;;5086898;28;20452;-88
2021/12/17 05:32:48;;;;;;;0.30;0.10;;;4.10;99.90;;;;;;5086976;28;20448;-89
2021/12/17 05:35:16;;;;;;;0.50;0.50;;;4.10;99.90;;;;;;5070406;28;20895;-88
2021/12/17 05:37:43;;;;;;;1.03;0.33;;;4.10;99.90;;;;;;5070380;28;20537;-90
2021/12/17 05:40:12;;;;;;;0.30;0.10;;;4.10;99.90;;;;;;5067391;28;20507;-91
2021/12/17 05:42:39;;;;;;;0.40;0.30;;;4.10;99.90;;;;;;5069409;28;20479;-90
2021/12/17 05:45:20;;;;;;;0.30;0.10;;;4.00;99.90;;;;;;5079707;28;20443;-90
2021/12/17 05:47:47;;;;;;;0.30;0.20;;;4.10;99.90;;;;;;5058783;28;20458;-89
2021/12/17 05:50:16;;;;;;;0.30;0.10;;;4.10;99.90;;;;;;5063711;28;20934;-89
2021/12/17 05:52:43;;;;;;;0.30;0.10;;;4.00;99.90;;;;;;5068749;28;20502;-89
2021/12/17 05:55:10;;;;;;;0.30;0.20;;;4.00;99.90;;;;;;5069458;28;20452;-89
2021/12/17 05:57:37;;;;;;;1.60;1.50;;;4.00;99.90;;;;;;5072383;28;20452;-89
2021/12/17 06:00:06;;;;;;;0.50;0.50;;;4.00;99.90;;;;;;5070388;28;20514;-89
2021/12/17 06:02:33;;;;;;;0.30;0.20;;;4.00;99.90;;;;;;5052630;28;20869;-90
2021/12/17 06:05:00;;;;;;;0.30;0.10;;;4.00;99.90;;;;;;5067710;28;20468;-89
2021/12/17 06:07:29;;;;;;;0.30;0.10;;;4.00;99.90;;;;;;5070667;28;20521;-89
2021/12/17 06:10:01;;;;;;;0.97;0.77;;;4.00;99.90;;;;;;5067562;28;20452;-88
2021/12/17 06:12:28;;;;;;;0.30;0.10;;;4.00;99.90;;;;;;5062349;28;20441;-89
2021/12/17 06:14:55;;;;;;;0.30;0.10;;;4.00;99.90;;;;;;5067478;28;20513;-91
2021/12/17 06:17:22;;;;;;;0.30;0.10;;;4.00;99.90;;;;;;5071393;28;20440;-89
2021/12/17 06:19:49;;;;;;;0.50;0.50;;;4.00;99.90;;;;;;5067656;28;20996;-88
2021/12/17 06:22:17;;;;;;;0.30;0.10;;;4.00;99.90;;;;;;5070020;28;20521;-89
2021/12/17 06:24:46;;;;;;;0.30;0.10;;;4.10;99.90;;;;;;5066014;28;20449;-89
2021/12/17 06:27:13;;;;;;;2.57;1.80;;;4.00;99.90;;;;;;5077449;28;20715;-89
2021/12/17 06:29:41;;;;;;;0.30;0.10;;;4.00;99.90;;;;;;5077935;28;20452;-89
2021/12/17 06:32:09;;;;;;;1.73;1.23;;;4.00;99.90;;;;;;5066176;28;20495;-89
2021/12/17 06:34:36;;;;;;;0.30;0.10;;;3.90;99.90;;;;;;5068476;28;20455;-89
2021/12/17 06:37:04;;;;;;;0.30;0.10;;;3.90;99.90;;;;;;5070037;28;20479;-89
2021/12/17 06:39:31;;;;;;;0.40;0.30;;;3.90;99.90;;;;;;5056773;28;20914;-90
2021/12/17 06:42:00;;;;;;;0.30;0.10;;;3.90;99.90;;;;;;5069931;28;20971;-87
2021/12/17 06:44:28;;;;;;;0.30;0.10;;;3.90;99.90;;;;;;5067848;28;20447;-87
2021/12/17 06:47:00;;;;;;;0.30;0.10;;;3.90;99.90;;;;;;5069609;28;20942;-88
2021/12/17 06:49:43;;;;;;;0.53;0.30;;;3.90;99.90;;;;;;5070697;28;20444;-88
2021/12/17 06:55:05;;;;;;;0.30;0.10;;;3.80;99.90;;;;;;5070865;28;20419;-90
2021/12/17 07:00:35;;;;;;;0.30;0.20;;;3.80;99.90;;;;;;5058787;28;20563;-90
2021/12/17 07:05:58;;;;;;;0.40;0.20;;;3.80;99.90;;;;;;5070158;28;20435;-90
2021/12/17 07:11:19;;;;;;;0.30;0.20;;;3.80;99.90;;;;;;5064608;28;20465;-87
2021/12/17 07:22:05;;;;;;;1.70;1.60;;;3.80;99.90;;;;;;5070133;28;20578;-87
2021/12/17 07:32:49;;;;;;;0.30;0.20;;;3.90;99.90;;;;;;5068333;28;20901;-88
2021/12/17 07:41:12;;;;;;;0.30;0.10;;;4.00;99.90;;;;;;5017835;28;20457;-88
2021/12/17 07:43:40;;;;;;;0.30;0.20;;;4.00;99.90;;;;;;5027258;28;20437;-87
2021/12/17 07:46:11;;;;;;;1.57;0.70;;;4.00;99.90;;;;;;5037717;28;20524;-87
2021/12/17 07:48:39;;;;;;;0.30;0.20;;;4.00;99.90;;;;;;5071716;28;20593;-88
2021/12/17 07:51:08;;;;;;;0.67;0.67;;;4.00;99.90;;;;;;5072273;28;20482;-87
2021/12/17 07:53:35;;;;;;;0.30;0.10;;;4.00;99.90;;;;;;5070969;28;20451;-87
2021/12/17 07:56:05;;;;;;;0.70;0.47;;;4.10;99.90;;;;;;5074178;28;20527;-87
2021/12/17 07:58:32;;;;;;;0.30;0.10;;;4.00;99.90;;;;;;5071603;28;20448;-88
2021/12/17 08:01:00;;;;;;;0.30;0.10;;;4.10;99.90;;;;;;5068867;28;20443;-87
2021/12/17 08:03:29;;;;;;;0.30;0.10;;;4.00;99.90;;;;;;5062917;28;20441;-87
2021/12/17 08:05:56;;;;;;;0.30;0.10;;;4.00;99.90;;;;;;5050215;28;20494;-87
2021/12/17 08:08:23;;;;;;;0.30;0.20;;;4.10;99.90;;;;;;5051690;28;20471;-87
2021/12/17 08:10:50;;;;;;;0.30;0.20;;;4.10;99.90;;;;;;5068910;28;20575;-87
2021/12/17 08:13:21;;;;;;;0.30;0.20;;;4.10;99.90;;;;;;5069395;28;20464;-87
2021/12/17 08:16:03;;;;;;;0.30;0.10;;;4.10;99.90;;;;;;5063861;28;20440;-88
2021/12/17 08:18:51;;;;;;;0.40;0.30;;;4.10;99.90;;;;;;5056886;28;20513;-88
2021/12/17 08:26:57;;;;;;;0.30;0.10;;;4.20;99.90;;;;;;5080972;28;20928;-90
2021/12/17 08:29:42;;;;;;;0.30;0.10;;;4.20;99.90;;;;;;5074678;28;20640;-90
2021/12/17 08:32:10;;;;;;;0.30;0.10;;;4.20;99.90;;;;;;5068725;28;20466;-91
2021/12/17 08:34:39;;;;;;;0.30;0.10;;;4.20;99.90;;;;;;5071261;28;20440;-90
2021/12/17 08:37:07;;;;;;;0.30;0.10;;;4.20;99.90;;;;;;5065178;28;20823;-89
2021/12/17 08:39:34;;;;;;;0.30;0.10;;;4.30;99.90;;;;;;5073491;28;20504;-86
2021/12/17 08:42:01;;;;;;;0.30;0.10;;;4.30;99.90;;;;;;5072152;28;20515;-88
2021/12/17 08:44:28;;;;;;;0.30;0.10;;;4.40;99.90;;;;;;5069621;28;20439;-88
2021/12/17 08:46:55;;;;;;;0.30;0.10;;;4.40;99.90;;;;;;5065418;28;20459;-88
2021/12/17 08:49:22;;;;;;;0.30;0.10;;;4.40;99.90;;;;;;5072914;28;20509;-87
2021/12/17 08:51:51;;;;;;;0.30;0.10;;;4.50;99.90;;;;;;5068302;28;20860;-88
2021/12/17 08:54:18;;;;;;;0.40;0.30;;;4.40;99.90;;;;;;5072393;28;20922;-87
2021/12/17 08:56:49;;;;;;;0.30;0.20;;;4.50;99.90;;;;;;5054812;28;20510;-85
2021/12/17 08:59:17;;;;;;;0.40;0.40;;;4.50;99.90;;;;;;5055769;28;20460;-85
2021/12/17 09:01:45;;;;;;;0.30;0.10;;;4.50;99.90;;;;;;5072642;28;20507;-85
2021/12/17 09:04:12;;;;;;;0.30;0.10;;;4.50;99.90;;;;;;5071985;28;20456;-87
2021/12/17 09:06:39;;;;;;;0.67;0.33;;;4.40;99.90;;;;;;5072166;28;20490;-85
2021/12/17 09:09:08;;;;;;;0.30;0.10;;;4.40;99.90;;;;;;5072154;28;20436;-85
2021/12/17 09:11:35;;;;;;;4.30;1.23;;;4.40;99.90;;;;;;5072473;28;20444;-85
2021/12/17 09:14:05;;;;;;;0.30;0.20;;;4.40;99.90;;;;;;5071351;28;20464;-85
2021/12/17 09:16:32;;;;;;;0.30;0.20;;;4.50;99.90;;;;;;5072097;28;20491;-87
2021/12/17 09:18:59;;;;;;;0.60;0.60;;;4.40;99.90;;;;;;5079921;28;20493;-85
2021/12/17 09:21:26;;;;;;;4.27;1.07;;;4.40;99.90;;;;;;5080311;28;20505;-85
2021/12/17 09:23:53;;;;;;;1.23;1.23;;;4.40;99.90;;;;;;5073800;28;20455;-87
2021/12/17 09:26:23;;;;;;;0.50;0.50;;;4.40;99.90;;;;;;5071970;28;20561;-85
2021/12/17 09:28:50;;;;;;;0.70;0.40;;;4.40;99.90;;;;;;5062208;28;20546;-85
2021/12/17 09:31:18;;;;;;;0.40;0.20;;;4.40;99.90;;;;;;5071134;28;20447;-85
2021/12/17 09:33:49;;;;;;;0.30;0.10;;;4.30;99.90;;;;;;5063086;28;20506;-85
2021/12/17 09:36:16;;;;;;;0.50;0.20;;;4.30;99.90;;;;;;5069708;28;20484;-85
2021/12/17 09:38:46;;;;;;;0.73;0.73;;;4.30;99.90;;;;;;5071720;28;20776;-85
2021/12/17 09:41:13;;;;;;;1.23;0.50;;;4.30;99.90;;;;;;5071307;28;20537;-83
2021/12/17 09:43:41;;;;;;;0.30;0.10;;;4.20;99.90;;;;;;5070716;28;20884;-85
2021/12/17 09:46:08;;;;;;;0.40;0.33;;;4.20;99.90;;;;;;5051941;28;20520;-86
2021/12/17 09:48:37;;;;;;;0.30;0.10;;;4.30;99.90;;;;;;5052101;28;20432;-85
2021/12/17 09:51:07;;;;;;;0.30;0.10;;;4.30;99.90;;;;;;5067679;28;20534;-85
2021/12/17 09:53:35;;;;;;;0.30;0.20;;;4.30;99.90;;;;;;5071330;28;20456;-88
2021/12/17 09:56:02;;;;;;;0.30;0.20;;;4.30;99.90;;;;;;5072321;28;20521;-86
2021/12/17 09:58:29;;;;;;;0.30;0.10;;;4.30;99.90;;;;;;5069605;28;20460;-86
2021/12/17 10:00:58;;;;;;;0.30;0.10;;;4.30;99.90;;;;;;5070213;28;20533;-87
2021/12/17 10:03:26;;;;;;;0.30;0.10;;;4.30;99.90;;;;;;5065525;28;20479;-85
2021/12/17 10:05:53;;;;;;;0.30;0.10;;;4.30;99.90;;;;;;5063122;28;20502;-85
2021/12/17 10:08:22;;;;;;;0.30;0.10;;;4.40;99.90;;;;;;5058847;28;20464;-85
2021/12/17 10:10:54;;;;;;;0.30;0.13;;;4.40;99.90;;;;;;5071106;28;20443;-84
2021/12/17 10:13:23;;;;;;;0.30;0.20;;;4.50;99.90;;;;;;5071225;28;20500;-85
2021/12/17 10:15:53;;;;;;;0.40;0.33;;;4.40;99.90;;;;;;5080070;28;20502;-86
2021/12/17 10:18:32;;;;;;;0.30;0.10;;;4.40;99.90;;;;;;5079265;28;20459;-87
2021/12/17 10:21:01;;;;;;;0.30;0.20;;;4.40;99.90;;;;;;5053718;28;20449;-88
2021/12/17 10:23:30;;;;;;;0.37;0.17;;;4.50;99.90;;;;;;5050752;28;20538;-87
2021/12/17 10:25:58;;;;;;;0.30;0.10;;;4.50;99.90;;;;;;5057383;28;20826;-87
2021/12/17 10:28:26;;;;;;;0.30;0.20;;;4.50;99.90;;;;;;5070558;28;20914;-86
2021/12/17 10:30:55;;;;;;;0.30;0.10;;;4.40;99.90;;;;;;5070178;28;20926;-86
2021/12/17 10:33:27;;;;;;;0.30;0.10;;;4.60;99.90;;;;;;5068849;28;20474;-86
2021/12/17 10:36:00;;;;;;;0.50;0.50;;;4.60;99.90;;;;;;5066723;28;20768;-89
2021/12/17 10:38:27;;;;;;;0.70;0.70;;;4.50;99.90;;;;;;5070272;28;20479;-86
2021/12/17 10:41:00;;;;;;;0.30;0.10;;;4.50;99.90;;;;;;5069969;28;20833;-87
2021/12/17 10:43:33;;;;;;;0.30;0.20;;;4.50;99.90;;;;;;5069716;28;20537;-87
2021/12/17 10:46:05;;;;;;;0.30;0.10;;;4.60;99.90;;;;;;5069774;28;20480;-89
2021/12/17 10:48:38;;;;;;;0.30;0.10;;;4.60;99.90;;;;;;5070897;28;20881;-87
2021/12/17 10:51:21;;;;;;;0.30;0.10;;;4.60;99.90;;;;;;5069991;28;20460;-87
2021/12/17 10:53:54;;;;;;;0.30;0.10;;;4.70;99.90;;;;;;5067966;28;20546;-89
2021/12/17 10:56:23;;;;;;;0.30;0.10;;;4.70;99.90;;;;;;5070396;28;20439;-86
2021/12/17 10:58:59;;;;;;;0.30;0.10;;;4.70;99.90;;;;;;5069835;28;20973;-86
2021/12/17 11:01:35;;;;;;;0.30;0.10;;;4.80;99.90;;;;;;5069605;28;20463;-86
2021/12/17 11:04:23;;;;;;;0.30;0.10;;;4.80;99.90;;;;;;5070612;28;20553;-87
2021/12/17 11:06:55;;;;;;;0.30;0.10;;;4.80;99.90;;;;;;5070005;28;20934;-87
2021/12/17 11:09:46;;;;;;;1.03;1.03;;;4.80;99.90;;;;;;5063540;28;20513;-88
2021/12/17 11:12:30;;;;;;;1.60;0.37;;;4.80;99.90;;;;;;5059367;28;20512;-86
2021/12/17 11:15:10;;;;;;;0.30;0.10;;;4.90;99.90;;;;;;5094189;28;20462;-86
2021/12/17 11:17:38;;;;;;;0.30;0.10;;;4.90;99.90;;;;;;5074295;28;20435;-86
2021/12/17 11:20:08;;;;;;;1.33;0.53;;;5.00;99.90;;;;;;5068999;28;20546;-87
2021/12/17 11:22:36;;;;;;;0.30;0.10;;;5.10;99.90;;;;;;5069776;28;20483;-88
2021/12/17 11:25:04;;;;;;;0.70;0.70;;;5.20;99.90;;;;;;5069118;28;20866;-86
2021/12/17 11:27:31;;;;;;;0.30;0.10;;;5.10;99.90;;;;;;5069007;28;20511;-86
2021/12/17 11:29:58;;;;;;;0.30;0.20;;;5.10;99.90;;;;;;5069491;28;21008;-86
2021/12/17 11:32:25;;;;;;;0.30;0.10;;;5.10;99.90;;;;;;5069808;28;20432;-88
2021/12/17 11:34:54;;;;;;;0.30;0.20;;;5.20;99.90;;;;;;5067536;28;20483;-85
2021/12/17 11:37:24;;;;;;;0.30;0.10;;;5.20;99.90;;;;;;5069391;28;20515;-86
2021/12/17 11:39:55;;;;;;;0.30;0.10;;;5.20;99.90;;;;;;5067446;28;20553;-85
2021/12/17 11:42:47;;;;;;;0.50;0.50;;;5.10;99.90;;;;;;5068279;28;20934;-86
2021/12/17 11:45:26;;;;;;;0.40;0.30;;;5.10;99.90;;;;;;5069599;28;20443;-85
2021/12/17 11:47:57;;;;;;;0.30;0.20;;;5.00;99.90;;;;;;5068315;28;20467;-85
2021/12/17 11:50:24;;;;;;;0.50;0.50;;;4.90;99.90;;;;;;5069299;28;20448;-86
2021/12/17 11:52:54;;;;;;;0.30;0.10;;;4.90;99.90;;;;;;5070010;28;20512;-85
2021/12/17 11:55:33;;;;;;;0.30;0.20;;;4.80;99.90;;;;;;5071206;28;20466;-85
2021/12/17 11:58:04;;;;;;;0.30;0.10;;;4.80;99.90;;;;;;5073363;28;20442;-84
2021/12/17 12:00:33;;;;;;;0.30;0.10;;;4.80;99.90;;;;;;5074099;28;20528;-85
2021/12/17 12:03:19;;;;;;;0.30;0.10;;;4.80;99.90;;;;;;5072700;28;20529;-86
2021/12/17 12:05:47;;;;;;;0.30;0.17;;;4.80;99.90;;;;;;5073289;28;20444;-83
2021/12/17 12:08:44;;;;;;;0.30;0.10;;;4.80;99.90;;;;;;5074640;28;20545;-84
2021/12/17 12:11:13;;;;;;;0.30;0.10;;;4.70;99.90;;;;;;5083466;28;20538;-85
2021/12/17 12:13:42;;;;;;;0.30;0.27;;;4.70;99.90;;;;;;5079581;28;20452;-85
2021/12/17 12:16:11;;;;;;;0.40;0.30;;;4.80;99.90;;;;;;5073324;28;20517;-86
2021/12/17 12:18:44;;;;;;;0.30;0.10;;;4.90;99.90;;;;;;5069020;28;20447;-85
2021/12/17 12:21:11;;;;;;;0.30;0.10;;;4.90;99.90;;;;;;5073054;28;20796;-86
2021/12/17 12:23:48;;;;;;;0.30;0.10;;;4.90;99.90;;;;;;5071015;28;20486;-86
2021/12/17 12:26:18;;;;;;;0.30;0.10;;;4.90;99.90;;;;;;5067280;28;20498;-85
2021/12/17 12:28:52;;;;;;;0.30;0.10;;;4.90;99.90;;;;;;5069693;28;20487;-84
2021/12/17 12:31:53;;;;;;;0.30;0.20;;;4.80;99.90;;;;;;5074550;28;20459;-87
2021/12/17 12:34:21;;;;;;;0.30;0.10;;;4.80;99.90;;;;;;5066981;28;20448;-85
2021/12/17 12:36:53;;;;;;;0.30;0.10;;;4.80;99.90;;;;;;5066924;28;20513;-84
2021/12/17 12:39:25;;;;;;;0.30;0.10;;;4.80;99.90;;;;;;5058513;28;20477;-84
2021/12/17 12:41:59;;;;;;;0.30;0.10;;;4.70;99.90;;;;;;5071700;28;20512;-87
2021/12/17 12:45:09;;;;;;;0.30;0.10;;;4.70;99.90;;;;;;5062950;28;20611;-87
2021/12/17 12:47:55;;;;;;;0.50;0.30;;;4.80;99.90;;;;;;5052569;28;20502;-84
2021/12/17 12:50:24;;;;;;;0.30;0.10;;;4.80;99.90;;;;;;5056923;28;20455;-87
2021/12/17 12:52:53;;;;;;;0.30;0.20;;;4.80;99.90;;;;;;5069714;28;20450;-87
2021/12/17 12:55:26;;;;;;;0.30;0.10;;;4.80;99.90;;;;;;5072122;28;20494;-84
2021/12/17 12:57:56;;;;;;;0.30;0.20;;;4.80;99.90;;;;;;5072224;28;20497;-83
2021/12/17 13:00:25;;;;;;;0.30;0.10;;;4.80;99.90;;;;;;5071537;28;20939;-84
2021/12/17 13:02:55;;;;;;;0.30;0.10;;;4.80;99.90;;;;;;5070485;28;20502;-84
2021/12/17 13:05:23;;;;;;;0.30;0.20;;;4.80;99.90;;;;;;5071892;28;20448;-84
2021/12/17 13:07:52;;;;;;;0.30;0.10;;;4.80;99.90;;;;;;5080008;28;20493;-83
2021/12/17 13:10:24;;;;;;;0.30;0.20;;;4.80;99.90;;;;;;5077548;28;20509;-84
2021/12/17 13:12:58;;;;;;;0.30;0.10;;;4.70;99.90;;;;;;5058256;28;20515;-84
2021/12/17 13:15:41;;;;;;;0.30;0.20;;;4.60;99.90;;;;;;5067681;28;20460;-84
2021/12/17 13:23:49;;;;;;;0.30;0.10;;;4.50;99.90;;;;;;5040976;28;20488;-86
2021/12/17 13:26:19;;;;;;;0.30;0.13;;;4.50;99.90;;;;;;5070660;28;20460;-83
2021/12/17 13:28:48;;;;;;;0.30;0.10;;;4.50;99.90;;;;;;5071464;28;20494;-85
2021/12/17 13:31:34;;;;;;;0.30;0.10;;;4.40;99.90;;;;;;5061678;28;20528;-84
2021/12/17 13:34:01;;;;;;;0.30;0.20;;;4.40;99.90;;;;;;5057856;28;20801;-84
2021/12/17 13:36:28;;;;;;;0.30;0.10;;;4.40;99.90;;;;;;5057941;28;20517;-87
2021/12/17 13:38:57;;;;;;;0.30;0.10;;;4.40;99.90;;;;;;5070024;28;20533;-83
2021/12/17 13:41:40;;;;;;;0.80;0.60;;;4.40;99.90;;;;;;5065381;28;20455;-85
2021/12/17 13:44:26;;;;;;;0.83;0.80;;;4.40;99.90;;;;;;5059509;28;20513;-84
2021/12/17 13:46:54;;;;;;;0.50;0.30;;;4.40;99.90;;;;;;5064431;28;20460;-84
2021/12/17 13:49:24;;;;;;;0.30;0.17;;;4.30;99.90;;;;;;5071531;28;20546;-84
2021/12/17 13:51:51;;;;;;;0.63;0.40;;;4.30;99.90;;;;;;5059383;28;20441;-84
2021/12/17 13:54:18;;;;;;;0.40;0.40;;;4.30;99.90;;;;;;5052632;28;20444;-86
2021/12/17 13:56:56;;;;;;;0.30;0.20;;;4.30;99.90;;;;;;5071220;28;20443;-84
2021/12/17 13:59:29;;;;;;;0.40;0.30;;;4.30;99.90;;;;;;5068489;28;20460;-85
2021/12/17 14:01:56;;;;;;;0.30;0.10;;;4.20;99.90;;;;;;5053347;28;20723;-84
2021/12/17 14:04:23;;;;;;;0.40;0.40;;;4.20;99.90;;;;;;5060568;28;20484;-85
2021/12/17 14:06:53;;;;;;;0.30;0.10;;;4.20;99.90;;;;;;5070115;28;20455;-87
2021/12/17 14:09:21;;;;;;;0.30;0.20;;;4.20;99.90;;;;;;5065394;28;20564;-85
2021/12/17 14:11:50;;;;;;;0.83;0.83;;;4.20;99.90;;;;;;5061060;28;20444;-85
2021/12/17 14:14:25;;;;;;;0.30;0.10;;;4.20;99.90;;;;;;5066632;28;20975;-86
2021/12/17 14:16:59;;;;;;;0.30;0.10;;;4.10;99.90;;;;;;5069906;28;20890;-85
2021/12/17 14:19:41;;;;;;;1.13;1.13;;;4.10;99.90;;;;;;5069478;28;20534;-85
2021/12/17 14:22:27;;;;;;;0.30;0.10;;;4.10;99.90;;;;;;5066919;28;20513;-87
2021/12/17 14:24:56;;;;;;;0.30;0.10;;;4.10;99.90;;;;;;5065961;28;20472;-85
2021/12/17 14:27:43;;;;;;;0.30;0.20;;;4.10;99.90;;;;;;5054224;28;20451;-87
2021/12/17 14:30:12;;;;;;;0.30;0.10;;;4.10;99.90;;;;;;5067967;28;20436;-87
2021/12/17 14:32:42;;;;;;;0.40;0.30;;;4.10;99.90;;;;;;5068432;28;20871;-85
2021/12/17 14:35:10;;;;;;;0.30;0.20;;;4.10;99.90;;;;;;5071256;28;20533;-87
2021/12/17 14:37:50;;;;;;;0.30;0.10;;;4.00;99.90;;;;;;5086815;28;20474;-85
2021/12/17 14:40:33;;;;;;;0.30;0.13;;;4.00;99.90;;;;;;5082353;28;20535;-85
2021/12/17 14:43:01;;;;;;;0.67;0.67;;;3.90;99.90;;;;;;5078613;28;21157;-88
2021/12/17 14:45:42;;;;;;;0.30;0.10;;;3.90;99.90;;;;;;5088971;28;20481;-85
2021/12/17 14:48:17;;;;;;;1.93;0.57;;;3.80;99.90;;;;;;5050838;28;20436;-85
2021/12/17 15:02:39;;;;;;;0.30;0.10;;;3.40;99.90;;;;;;5082471;28;20517;-84
2021/12/17 15:05:08;;;;;;;0.30;0.10;;;3.40;99.90;;;;;;5091768;28;20514;-88
2021/12/17 15:07:35;;;;;;;0.30;0.10;;;3.30;99.90;;;;;;5069597;28;20504;-86
2021/12/17 15:10:03;;;;;;;1.70;1.60;;;3.20;99.90;;;;;;5068810;28;20790;-86
2021/12/17 15:12:39;;;;;;;0.30;0.10;;;3.20;99.90;;;;;;5066760;28;20513;-85
2021/12/17 15:15:13;;;;;;;0.30;0.13;;;3.10;99.90;;;;;;5054596;28;20862;-85
2021/12/17 15:17:41;;;;;;;0.30;0.10;;;3.10;99.90;;;;;;5064497;28;20431;-86
2021/12/17 15:20:10;;;;;;;0.30;0.20;;;3.00;99.90;;;;;;5072172;28;21003;-86
2021/12/17 15:22:38;;;;;;;0.47;0.40;;;3.00;99.90;;;;;;5071264;28;20536;-85
2021/12/17 15:25:08;;;;;;;0.30;0.10;;;3.00;99.90;;;;;;5088325;28;21032;-87
2021/12/17 15:27:35;;;;;;;0.30;0.10;;;3.00;99.90;;;;;;5078322;28;20511;-86
2021/12/17 15:30:03;;;;;;;0.90;0.70;;;3.10;99.90;;;;;;5086464;28;20490;-85
2021/12/17 15:32:32;;;;;;;0.30;0.10;;;3.10;99.90;;;;;;5089780;28;20442;-85
2021/12/17 15:34:59;;;;;;;0.30;0.20;;;3.20;99.90;;;;;;5069339;28;20948;-86
2021/12/17 15:37:26;;;;;;;0.30;0.10;;;3.20;99.90;;;;;;5069220;28;20540;-86
2021/12/17 15:39:54;;;;;;;0.97;0.97;;;3.20;99.90;;;;;;5068609;28;20459;-85
2021/12/17 15:42:21;;;;;;;0.30;0.20;;;3.20;99.90;;;;;;5070036;28;20439;-86
2021/12/17 15:44:48;;;;;;;0.50;0.50;;;3.20;99.90;;;;;;5068387;28;20487;-86